Главная страница
METAR-TAF:

METAR-TAF

Аэропорты :

Kramfors, Швеция

широта: 63-03N, долгота: 017-46E, высота над уровнем моря: 10 м

Текущие метеонаблюдения

Эта сводка был подготовлена 31 минут назад, в 11:50 UTC
Ветер 10 Узел от восточно-юго-восточный
Температура 12°C
Влажность 82%
Давление 1000 hPa
Видимость 10 км и более

METAR: ESNK 241150Z AUTO 12010KT 9999 SCT014/// BKN018/// OVC120/// 12/09 Q1000

Время: 14:21 (12:21 UTC)


TAF: отсутствует

Метеонаблюдения и прогнозы для более 4000 аэропортов (сводки METAR и TAF).

Имеющиеся станции представлены на карте желтыми и красными точками.

Чтобы увидеть название станции, наведите на нее мышь.

Затем щелкните, чтобы увидеть метеонаблюдения и метеопрогнозы.

Управление картой: чтобы увеличить масштаб, щелкните зеленые кнопки с черным крестиком; чтобы уменьшить масштаб, щелкните зеленую кнопку с тире; для просмотра соседних карт щелкайте зеленые стрелки.


METAR-TAF: